Time;durP1;ratioP1;P1;durP2;ratioP2;P2;SDS_P1;SDS_P2;PMS_P1;PMS_P2;Temp;Humidity;BMP_temperature;BMP_pressure;BME280_temperature;BME280_humidity;BME280_pressure;Samples;Min_cycle;Max_cycle;Signal;HPM_P1;HPM_P2
2023/02/06 00:01:31;;;;;;;32.55;6.13;;;1.40;99.90;;;-144.05;81.23;57101.59;4974186;28;20023;-84
2023/02/06 00:03:57;;;;;;;23.45;4.70;;;1.40;99.90;;;-144.05;81.45;57086.72;4974517;28;20087;-83
2023/02/06 00:06:22;;;;;;;29.73;5.15;;;1.40;99.90;;;-144.05;81.31;57097.34;4975016;28;20038;-82
2023/02/06 00:08:48;;;;;;;32.15;5.45;;;1.40;99.90;;;-144.05;81.36;57093.09;4991587;28;20045;-84
2023/02/06 00:11:16;;;;;;;31.85;4.72;;;1.50;99.90;;;-144.05;81.45;57093.09;4991837;28;20088;-83
2023/02/06 00:13:44;;;;;;;20.23;4.38;;;1.60;99.90;;;-144.05;81.37;57099.47;4991589;28;20033;-82
2023/02/06 00:16:21;;;;;;;24.52;6.30;;;1.60;99.90;;;-144.05;81.59;57095.22;4974330;28;20022;-85
2023/02/06 00:18:49;;;;;;;32.13;6.55;;;1.60;99.90;;;-144.05;81.72;57099.47;4974142;28;20030;-82
2023/02/06 00:21:20;;;;;;;22.80;4.35;;;1.60;99.90;;;-144.05;81.65;57071.84;4974052;28;20054;-82
2023/02/06 00:23:56;;;;;;;25.15;4.82;;;1.60;99.90;;;-144.05;82.07;57116.47;4990472;28;20027;-82
2023/02/06 00:26:24;;;;;;;26.73;4.55;;;1.60;99.90;;;-144.05;81.59;57084.59;4974306;28;20042;-83
2023/02/06 00:28:51;;;;;;;37.58;5.55;;;1.60;99.90;;;-144.05;81.53;57114.34;4974090;28;20478;-83
2023/02/06 00:31:17;;;;;;;23.58;4.38;;;1.50;99.90;;;-144.05;81.95;57080.34;4974461;28;20039;-83
2023/02/06 00:33:43;;;;;;;32.92;7.15;;;1.50;99.90;;;-144.05;81.84;57101.59;4978510;28;20089;-83
2023/02/06 00:36:10;;;;;;;23.05;5.70;;;1.50;99.90;;;-144.05;81.82;57076.09;4977653;28;20034;-83
2023/02/06 00:38:40;;;;;;;20.50;4.50;;;1.60;99.90;;;-144.05;82.06;57097.34;4977212;28;20502;-83
2023/02/06 00:41:11;;;;;;;22.73;4.70;;;1.50;99.90;;;-144.05;82.04;57084.59;4977324;28;20027;-83
2023/02/06 00:43:40;;;;;;;25.95;4.60;;;1.50;99.90;;;-144.05;81.97;57099.47;4993587;28;20027;-83
2023/02/06 00:46:06;;;;;;;21.40;4.75;;;1.50;99.90;;;-144.05;82.14;57073.97;4977253;28;20026;-82
2023/02/06 00:48:32;;;;;;;22.48;5.25;;;1.40;99.90;;;-144.05;81.99;57105.84;4977000;28;20410;-83
2023/02/06 00:50:58;;;;;;;30.52;4.65;;;1.40;99.90;;;-144.05;82.19;57078.22;4977020;28;20280;-81
2023/02/06 00:53:26;;;;;;;28.90;5.18;;;1.40;99.90;;;-144.05;82.21;57101.59;4977167;28;20054;-83
2023/02/06 00:55:52;;;;;;;25.27;4.35;;;1.30;99.90;;;-144.05;82.37;57099.47;4977071;28;20034;-81
2023/02/06 00:58:18;;;;;;;23.35;5.15;;;1.20;99.90;;;-144.05;82.24;57103.72;4994848;28;20041;-84
2023/02/06 01:00:44;;;;;;;28.88;5.22;;;1.20;99.90;;;-144.05;82.67;57110.09;4994884;28;20058;-84
2023/02/06 01:03:10;;;;;;;21.52;4.75;;;1.10;99.90;;;-144.05;82.59;57093.09;4977869;28;20039;-84
2023/02/06 01:05:36;;;;;;;30.35;5.30;;;1.20;99.90;;;-144.05;82.21;57086.72;4977638;28;20033;-85
2023/02/06 01:08:02;;;;;;;23.55;5.15;;;1.00;99.90;;;-144.05;82.32;57105.84;4976890;28;20398;-83
2023/02/06 01:10:28;;;;;;;27.02;4.75;;;1.00;99.90;;;-144.05;82.42;57112.22;4977369;28;20027;-83
2023/02/06 01:12:54;;;;;;;34.33;5.47;;;0.90;99.90;;;-144.05;82.42;57112.22;4977161;28;20371;-83
2023/02/06 01:15:20;;;;;;;32.78;4.80;;;0.90;99.90;;;-144.05;82.58;57110.09;4977300;28;20035;-84
2023/02/06 01:17:46;;;;;;;28.77;4.75;;;0.90;99.90;;;-144.05;82.38;57114.34;4976855;28;20104;-83
2023/02/06 01:20:13;;;;;;;24.08;3.97;;;0.80;99.90;;;-144.05;82.91;57120.72;4976827;28;20037;-83
2023/02/06 01:22:39;;;;;;;25.85;4.70;;;0.80;99.90;;;-144.05;82.59;57099.47;4994439;28;20053;-83
2023/02/06 01:25:06;;;;;;;33.85;5.15;;;0.70;99.90;;;-144.05;82.73;57112.22;4977331;28;20049;-82
2023/02/06 01:27:36;;;;;;;23.60;4.65;;;0.70;99.90;;;-144.05;82.74;57103.72;4976640;28;20076;-83
2023/02/06 01:30:06;;;;;;;24.63;4.38;;;0.70;99.90;;;-144.05;82.69;57101.59;4976686;28;20537;-83
2023/02/06 01:32:37;;;;;;;28.85;4.70;;;0.60;99.90;;;-144.05;82.80;57084.59;4976790;28;20037;-83
2023/02/06 01:35:07;;;;;;;24.42;5.57;;;0.60;99.90;;;-144.05;83.10;57116.47;4976944;28;20361;-84
2023/02/06 01:37:35;;;;;;;26.60;4.60;;;0.60;99.90;;;-144.05;83.07;57101.59;4976516;28;20059;-83
2023/02/06 01:40:03;;;;;;;22.10;5.00;;;0.60;99.90;;;-144.05;83.16;57097.34;4994133;28;20109;-84
2023/02/06 01:42:32;;;;;;;32.65;4.93;;;0.60;99.90;;;-144.05;83.09;57120.72;4976426;28;20174;-83
2023/02/06 01:45:45;;;;;;;24.23;3.90;;;0.60;99.90;;;-144.05;82.80;57135.56;4975659;28;20041;-82
2023/02/06 01:48:29;;;;;;;29.88;4.93;;;0.50;99.90;;;-144.05;82.76;57097.34;4976325;28;20030;-83
2023/02/06 01:50:58;;;;;;;25.83;4.28;;;0.50;99.90;;;-144.05;82.74;57116.47;4994184;28;20162;-83
2023/02/06 01:53:27;;;;;;;33.05;5.43;;;0.40;99.90;;;-144.05;82.90;57129.22;4977022;28;20034;-82
2023/02/06 01:55:57;;;;;;;20.58;4.00;;;0.30;99.90;;;-144.05;83.01;57135.56;4976638;28;20027;-83
2023/02/06 01:58:50;;;;;;;25.70;4.38;;;0.20;99.90;;;-144.05;82.97;57103.72;4979718;28;20041;-85
2023/02/06 02:01:18;;;;;;;30.75;5.63;;;0.10;99.90;;;-144.05;83.13;57129.22;4995801;28;20014;-81
2023/02/06 02:03:51;;;;;;;16.55;3.50;;;0.10;99.90;;;-144.05;83.43;57118.59;4980636;28;20614;-82
2023/02/06 02:06:23;;;;;;;23.67;5.68;;;0.00;99.90;;;-144.05;83.52;57090.97;4975962;28;20038;-83
2023/02/06 02:08:55;;;;;;;22.77;4.68;;;0.00;99.90;;;-144.05;83.94;57114.34;4976018;28;20085;-82
2023/02/06 02:11:28;;;;;;;19.35;4.63;;;0.00;99.90;;;-144.05;83.83;57110.09;4975916;28;20034;-82
2023/02/06 02:13:55;;;;;;;30.20;5.25;;;0.00;99.90;;;-144.05;83.92;57095.22;4976020;28;20037;-82
2023/02/06 02:17:01;;;;;;;36.22;6.40;;;0.00;99.90;;;-144.05;83.54;57122.84;4975842;28;20389;-83
2023/02/06 02:20:21;;;;;;;19.02;3.85;;;0.10;99.90;;;-144.05;83.44;57110.09;4992068;28;20454;-83
2023/02/06 02:23:02;;;;;;;15.88;2.97;;;0.10;99.90;;;-144.05;83.38;57133.44;4975906;28;20026;-83
2023/02/06 02:26:20;;;;;;;22.27;5.22;;;0.00;99.90;;;-144.05;83.44;57084.59;4975727;28;20129;-83
2023/02/06 02:29:41;;;;;;;31.15;4.82;;;-0.10;99.90;;;-144.05;83.13;57124.97;4975712;28;20433;-83
2023/02/06 02:32:53;;;;;;;19.98;3.83;;;-0.20;99.90;;;-144.05;83.02;57112.22;4976433;28;20080;-85
2023/02/06 02:35:51;;;;;;;24.80;4.00;;;-0.40;99.90;;;-144.05;83.43;57139.81;4994138;28;20486;-84
2023/02/06 02:39:04;;;;;;;34.20;5.32;;;-0.50;99.90;;;-144.05;84.15;57137.69;4976654;28;20030;-86
2023/02/06 02:41:47;;;;;;;32.83;5.57;;;-0.40;99.90;;;-144.05;84.18;57120.72;4978874;28;20022;-87
2023/02/06 02:44:40;;;;;;;30.67;4.20;;;-0.30;99.90;;;-144.05;83.91;57116.47;4975901;28;20034;-83
2023/02/06 02:47:15;;;;;;;18.80;4.97;;;-0.30;99.90;;;-144.05;83.38;57131.31;4975534;28;20062;-83
2023/02/06 02:49:45;;;;;;;22.77;3.85;;;-0.30;99.90;;;-144.05;83.63;57122.84;4975329;28;20069;-84
2023/02/06 02:52:14;;;;;;;36.35;5.03;;;-0.40;99.90;;;-144.05;84.20;57135.56;4993087;28;20053;-83
2023/02/06 02:54:40;;;;;;;25.10;5.15;;;-0.50;99.90;;;-144.05;84.42;57120.72;4976200;28;20462;-83
2023/02/06 02:57:21;;;;;;;24.30;5.53;;;-0.40;99.90;;;-144.05;84.04;57141.94;4976465;28;20125;-82
2023/02/06 02:59:50;;;;;;;22.33;5.22;;;-0.40;99.90;;;-144.05;83.92;57086.72;4994504;28;20026;-83
2023/02/06 03:02:36;;;;;;;31.17;4.40;;;-0.50;99.90;;;-144.05;83.57;57139.81;4976170;28;20054;-83
2023/02/06 03:05:11;;;;;;;17.60;3.63;;;-0.50;99.90;;;-144.05;83.49;57112.22;4975567;28;20085;-83
2023/02/06 03:08:07;;;;;;;14.23;4.05;;;-0.70;99.90;;;-144.05;83.61;57141.94;4991524;28;20097;-84
2023/02/06 03:11:03;;;;;;;27.80;5.05;;;-0.70;99.90;;;-144.05;83.82;57112.22;4975427;28;20041;-83
2023/02/06 03:13:43;;;;;;;15.10;3.03;;;-0.80;99.90;;;-144.05;83.56;57146.19;4975562;28;20069;-83
2023/02/06 03:16:36;;;;;;;39.95;6.85;;;-0.80;99.90;;;-144.05;84.34;57150.44;4992950;28;20113;-85
2023/02/06 03:19:26;;;;;;;32.97;7.03;;;-0.80;99.90;;;-144.05;84.88;57112.22;4975191;28;20549;-83
2023/02/06 03:21:52;;;;;;;29.85;6.05;;;-0.70;99.90;;;-144.05;84.82;57093.09;4975299;28;20027;-84
2023/02/06 03:24:31;;;;;;;41.03;7.75;;;-0.60;99.90;;;-144.05;85.61;57103.72;4975181;28;20034;-83
2023/02/06 03:27:04;;;;;;;45.70;6.95;;;-0.50;99.90;;;-144.05;85.22;57124.97;4975072;28;20030;-83
2023/02/06 03:29:36;;;;;;;35.08;5.07;;;-0.40;99.90;;;-144.05;85.34;57105.84;4975038;28;20128;-84
2023/02/06 03:32:19;;;;;;;25.40;5.38;;;-0.30;99.90;;;-144.05;84.79;57095.22;4974774;28;20042;-84
2023/02/06 03:35:21;;;;;;;25.92;5.70;;;-0.30;99.90;;;-144.05;84.55;57120.72;4975505;28;20038;-82
2023/02/06 03:37:49;;;;;;;29.58;5.40;;;-0.40;99.90;;;-144.05;84.66;57095.22;4974868;28;20406;-82
2023/02/06 03:40:17;;;;;;;25.25;4.70;;;-0.40;99.90;;;-144.05;84.36;57137.69;4975341;28;20470;-83
2023/02/06 03:42:55;;;;;;;30.33;5.43;;;-0.40;99.90;;;-144.05;84.70;57105.84;4975338;28;20030;-83
2023/02/06 03:45:46;;;;;;;33.38;5.88;;;-0.50;99.90;;;-144.05;84.22;57122.84;4975521;28;20031;-85
2023/02/06 03:48:33;;;;;;;27.05;5.47;;;-0.50;99.90;;;-144.05;84.31;57118.59;4974819;28;20057;-86
2023/02/06 03:51:13;;;;;;;34.55;5.55;;;-0.60;99.90;;;-144.05;84.36;57133.44;4975003;28;20030;-83
2023/02/06 03:53:44;;;;;;;33.60;5.57;;;-0.70;99.90;;;-144.05;84.82;57114.34;4975211;28;20062;-84
2023/02/06 03:56:32;;;;;;;39.67;5.68;;;-0.60;99.90;;;-144.05;84.81;57114.34;4975196;28;20117;-84
2023/02/06 03:58:59;;;;;;;41.70;5.88;;;-0.70;99.90;;;-144.05;84.73;57120.72;4975310;28;20482;-84
2023/02/06 04:01:26;;;;;;;51.17;6.07;;;-0.70;99.90;;;-144.05;85.26;57097.34;4975830;28;20037;-85
2023/02/06 04:03:53;;;;;;;35.45;7.65;;;-0.60;99.90;;;-144.05;85.47;57139.81;4975583;28;20033;-85
2023/02/06 04:06:20;;;;;;;42.20;7.90;;;-0.60;99.90;;;-144.05;85.21;57122.84;4976753;28;20062;-85
2023/02/06 04:08:45;;;;;;;42.72;7.43;;;-0.50;99.90;;;-144.05;84.94;57135.56;4995395;28;20057;-86
2023/02/06 04:11:11;;;;;;;33.58;7.40;;;-0.50;99.90;;;-144.05;84.93;57116.47;5017804;28;20034;-86
2023/02/06 04:13:37;;;;;;;37.90;6.72;;;-0.50;99.90;;;-144.05;85.33;57116.47;5001513;28;20085;-83
2023/02/06 04:16:04;;;;;;;26.40;5.78;;;-0.50;99.90;;;-144.05;84.84;57103.72;5000994;28;20033;-84
2023/02/06 04:18:30;;;;;;;32.38;6.15;;;-0.50;99.90;;;-144.05;85.06;57124.97;4978932;28;20149;-86
2023/02/06 04:21:05;;;;;;;30.10;6.78;;;-0.50;99.90;;;-144.05;84.87;57133.44;4979135;28;20092;-84
2023/02/06 04:23:33;;;;;;;21.08;5.55;;;-0.60;99.90;;;-144.05;84.95;57161.06;4978621;28;20038;-84
2023/02/06 04:25:59;;;;;;;45.65;7.70;;;-0.50;99.90;;;-144.05;84.87;57141.94;4978589;28;20045;-84
2023/02/06 04:28:25;;;;;;;31.80;5.78;;;-0.60;99.90;;;-144.05;84.81;57127.09;4978285;28;20069;-83
2023/02/06 04:30:51;;;;;;;35.05;5.55;;;-0.50;99.90;;;-144.05;84.57;57133.44;4981822;28;20033;-84
2023/02/06 04:33:17;;;;;;;27.20;6.38;;;-0.70;99.90;;;-144.05;84.56;57133.44;4983660;28;20031;-84
2023/02/06 04:35:43;;;;;;;36.95;6.18;;;-0.60;99.90;;;-144.05;84.91;57122.84;4996148;28;20037;-85
2023/02/06 04:38:09;;;;;;;40.88;7.30;;;-0.60;99.90;;;-144.05;84.53;57116.47;4977966;28;20038;-84
2023/02/06 04:40:35;;;;;;;34.20;6.75;;;-0.60;99.90;;;-144.05;84.34;57105.84;4980189;28;20030;-82
2023/02/06 04:43:01;;;;;;;38.45;6.65;;;-0.80;99.90;;;-144.05;84.78;57110.09;4981915;28;20030;-81
2023/02/06 04:45:27;;;;;;;37.30;7.88;;;-0.90;99.90;;;-144.05;85.41;57129.22;4980912;28;20136;-83
2023/02/06 04:47:53;;;;;;;51.33;8.43;;;-0.80;99.90;;;-144.05;85.66;57133.44;4979797;28;20044;-82
2023/02/06 04:50:19;;;;;;;40.55;8.48;;;-0.70;99.90;;;-144.05;85.33;57110.09;4979038;28;20042;-84
2023/02/06 04:52:45;;;;;;;37.40;7.15;;;-0.60;99.90;;;-144.05;85.03;57107.97;4979381;28;20038;-85
2023/02/06 04:55:11;;;;;;;45.38;7.13;;;-0.50;99.90;;;-144.05;84.91;57139.81;4979261;28;20371;-84
2023/02/06 04:57:37;;;;;;;37.80;7.32;;;-0.50;99.90;;;-144.05;84.76;57120.72;4979274;28;20030;-85
2023/02/06 05:00:09;;;;;;;30.73;7.40;;;-0.50;99.90;;;-144.05;84.87;57137.69;4978605;28;20030;-84
2023/02/06 05:02:38;;;;;;;27.40;5.68;;;-0.50;99.90;;;-144.05;84.78;57110.09;4979142;28;20401;-84
2023/02/06 05:05:09;;;;;;;37.17;7.07;;;-0.50;99.90;;;-144.05;84.62;57118.59;4979066;28;20086;-85
2023/02/06 05:07:36;;;;;;;21.80;5.45;;;-0.60;99.90;;;-144.05;84.56;57146.19;4979714;28;20050;-85
2023/02/06 05:10:03;;;;;;;29.42;5.80;;;-0.70;99.90;;;-144.05;84.63;57112.22;4980347;28;20038;-84
2023/02/06 05:12:29;;;;;;;22.95;4.55;;;-0.70;99.90;;;-144.05;84.46;57129.22;4979918;28;20040;-84
2023/02/06 05:14:55;;;;;;;32.45;6.40;;;-0.80;99.90;;;-144.05;84.89;57161.06;4981250;28;20125;-85
2023/02/06 05:17:21;;;;;;;39.70;7.13;;;-0.70;99.90;;;-144.05;84.81;57127.09;4982797;28;20038;-84
2023/02/06 05:19:47;;;;;;;79.10;32.20;;;-0.70;99.90;;;-144.05;84.61;57122.84;4983263;28;20434;-83
2023/02/06 05:22:13;;;;;;;102.10;41.47;;;-0.60;99.90;;;-144.05;84.62;57129.22;4981291;28;20034;-84
2023/02/06 05:28:20;;;;;;;71.03;28.10;;;-0.60;99.90;;;-144.05;84.70;57116.47;4997830;28;20034;-86
2023/02/06 05:30:46;;;;;;;52.10;20.27;;;-0.50;99.90;;;-144.05;84.70;57135.56;4981854;28;20595;-83
2023/02/06 05:33:18;;;;;;;47.00;15.88;;;-0.60;99.90;;;-144.05;85.01;57129.22;4981309;28;20038;-84
2023/02/06 05:36:02;;;;;;;;;;;;;;;;;;;;;
2023/02/06 05:38:28;;;;;;;48.92;14.48;;;-0.40;99.90;;;-144.05;85.11;57127.09;4998347;28;20461;-82
2023/02/06 05:40:57;;;;;;;43.78;11.88;;;-0.30;99.90;;;-144.05;85.07;57135.56;4980841;28;20065;-84
2023/02/06 05:43:23;;;;;;;75.43;23.92;;;-0.30;99.90;;;-144.05;85.06;57137.69;4980280;28;20034;-83
2023/02/06 05:45:49;;;;;;;79.97;30.25;;;-0.20;99.90;;;-144.05;85.29;57112.22;4982162;28;20046;-85
2023/02/06 05:48:15;;;;;;;59.58;14.88;;;0.00;99.90;;;-144.05;85.23;57122.84;4981486;28;20046;-83
2023/02/06 05:50:43;;;;;;;30.65;9.23;;;0.00;99.90;;;-144.05;85.10;57112.22;4983089;28;20058;-83
2023/02/06 05:53:09;;;;;;;36.13;8.35;;;0.10;99.90;;;-144.05;85.12;57124.97;4982005;28;20034;-83
2023/02/06 05:55:35;;;;;;;45.08;9.52;;;0.10;99.90;;;-144.05;85.06;57122.84;4982119;28;20034;-83
2023/02/06 05:58:01;;;;;;;36.17;6.50;;;0.20;99.90;;;-144.05;85.27;57103.72;4983979;28;20037;-83
2023/02/06 06:00:27;;;;;;;34.58;7.65;;;0.20;99.90;;;-144.05;85.17;57097.34;4983962;28;20030;-85
2023/02/06 06:02:53;;;;;;;26.02;5.72;;;0.30;99.90;;;-144.05;85.27;57120.72;4984819;28;20027;-83
2023/02/06 06:05:20;;;;;;;38.20;7.05;;;0.30;99.90;;;-144.05;85.19;57116.47;4985202;28;20041;-84
2023/02/06 06:07:46;;;;;;;41.42;8.25;;;0.30;99.90;;;-144.05;85.39;57110.09;4985383;28;20057;-84
2023/02/06 06:10:12;;;;;;;61.35;13.90;;;0.40;99.90;;;-144.05;85.14;57095.22;4983967;28;20034;-86
2023/02/06 06:12:37;;;;;;;78.30;24.70;;;0.40;99.90;;;-144.05;85.31;57099.47;4983374;28;20064;-83
2023/02/06 06:15:04;;;;;;;53.90;15.50;;;0.50;99.90;;;-144.05;85.12;57107.97;4982964;28;20039;-84
2023/02/06 06:17:30;;;;;;;54.08;14.30;;;0.50;99.90;;;-144.05;85.17;57076.09;4983996;28;20062;-84
2023/02/06 06:19:56;;;;;;;47.75;10.85;;;0.60;99.90;;;-144.05;85.14;57090.97;4981096;28;20513;-84
2023/02/06 06:22:22;;;;;;;39.80;10.55;;;0.60;99.90;;;-144.05;85.34;57086.72;4982217;28;20034;-86
2023/02/06 06:24:48;;;;;;;39.53;8.50;;;0.70;99.90;;;-144.05;85.24;57082.47;4996779;28;20019;-82
2023/02/06 06:27:13;;;;;;;43.05;12.10;;;0.60;99.90;;;-144.05;85.12;57112.22;4994325;28;20038;-84
2023/02/06 06:30:02;;;;;;;51.10;10.48;;;0.70;99.90;;;-144.05;85.35;57120.72;5004033;28;20072;-84
2023/02/06 06:32:28;;;;;;;51.78;11.77;;;0.80;99.90;;;-144.05;85.14;57078.22;4977108;28;20402;-87
2023/02/06 06:34:54;;;;;;;53.15;10.82;;;0.70;99.90;;;-144.05;85.15;57107.97;4981252;28;20474;-88
2023/02/06 06:37:20;;;;;;;72.38;12.27;;;0.80;99.90;;;-144.05;85.29;57101.59;4979967;28;20030;-84
2023/02/06 06:39:48;;;;;;;52.22;10.50;;;0.80;99.90;;;-144.05;85.38;57084.59;4979104;28;20026;-82
2023/02/06 06:42:14;;;;;;;48.65;9.48;;;0.90;99.90;;;-144.05;85.50;57112.22;4978570;28;20061;-85
2023/02/06 06:44:40;;;;;;;41.92;8.20;;;0.90;99.90;;;-144.05;85.13;57086.72;4978674;28;20060;-83
2023/02/06 06:47:06;;;;;;;40.78;9.23;;;0.80;99.90;;;-144.05;85.38;57099.47;4977620;28;20495;-85
2023/02/06 06:49:32;;;;;;;42.22;8.32;;;0.80;99.90;;;-144.05;85.40;57086.72;4977878;28;20224;-82
2023/02/06 06:51:58;;;;;;;35.80;9.20;;;0.90;99.90;;;-144.05;85.45;57067.59;4978439;28;20116;-83
2023/02/06 06:54:24;;;;;;;51.97;8.55;;;0.90;99.90;;;-144.05;85.37;57078.22;4979455;28;20037;-84
2023/02/06 06:56:50;;;;;;;53.85;8.80;;;0.90;99.90;;;-144.05;85.43;57084.59;4980556;28;20113;-86
2023/02/06 06:59:16;;;;;;;48.55;9.80;;;0.90;99.90;;;-144.05;85.57;57114.34;4978174;28;20050;-85
2023/02/06 07:01:42;;;;;;;69.30;16.77;;;0.90;99.90;;;-144.05;85.64;57067.59;4977781;28;20117;-86
2023/02/06 07:04:08;;;;;;;91.90;18.58;;;1.00;99.90;;;-144.05;85.34;57099.47;4978228;28;20038;-84
2023/02/06 07:06:34;;;;;;;66.78;13.45;;;1.00;99.90;;;-144.05;85.47;57084.59;4978786;28;20399;-86
2023/02/06 07:09:00;;;;;;;62.08;12.52;;;1.00;99.90;;;-144.05;85.34;57114.34;4976120;28;20027;-85
2023/02/06 07:11:26;;;;;;;49.47;12.30;;;1.10;99.90;;;-144.05;85.61;57112.22;4975873;28;20034;-85
2023/02/06 07:13:52;;;;;;;52.15;13.02;;;1.10;99.90;;;-144.05;85.27;57122.84;4975738;28;20041;-85
2023/02/06 07:16:18;;;;;;;40.58;11.77;;;1.10;99.90;;;-144.05;85.23;57078.22;4975875;28;20038;-84
2023/02/06 07:18:44;;;;;;;61.85;12.90;;;1.20;99.90;;;-144.05;85.57;57082.47;4975531;28;20027;-84
2023/02/06 07:21:13;;;;;;;53.60;12.57;;;1.20;99.90;;;-144.05;85.41;57093.09;4977657;28;20041;-85
2023/02/06 07:23:44;;;;;;;64.78;14.77;;;1.30;99.90;;;-144.05;85.72;57116.47;4978617;28;20030;-85
2023/02/06 07:26:10;;;;;;;46.75;13.30;;;1.30;99.90;;;-144.05;85.27;57097.34;4977136;28;20034;-84
2023/02/06 07:28:36;;;;;;;58.42;13.88;;;1.30;99.90;;;-144.05;85.53;57071.84;4976494;28;20395;-85
2023/02/06 07:31:07;;;;;;;55.67;14.38;;;1.30;99.90;;;-144.05;85.45;57067.59;4976475;28;20030;-82
2023/02/06 07:33:34;;;;;;;60.53;14.32;;;1.30;99.90;;;-144.05;85.24;57093.09;4976349;28;20435;-84
2023/02/06 07:36:00;;;;;;;119.13;16.45;;;1.40;99.90;;;-144.05;85.29;57105.84;4993208;28;20038;-83
2023/02/06 07:38:27;;;;;;;84.00;14.23;;;1.40;99.90;;;-144.05;85.08;57082.47;4975928;28;20027;-83
2023/02/06 07:40:53;;;;;;;81.05;15.20;;;1.30;99.90;;;-144.05;85.28;57127.09;4975864;28;20027;-85
2023/02/06 07:43:19;;;;;;;53.03;13.13;;;1.40;99.90;;;-144.05;85.30;57086.72;4978953;28;20398;-84
2023/02/06 07:45:44;;;;;;;58.97;14.48;;;1.40;99.90;;;-144.05;85.26;57071.84;4979873;28;20031;-84
2023/02/06 07:48:10;;;;;;;58.85;15.30;;;1.50;99.90;;;-144.05;85.04;57095.22;4979257;28;20524;-84
2023/02/06 07:50:37;;;;;;;63.08;13.25;;;1.50;99.90;;;-144.05;85.02;57067.59;4979057;28;20026;-84
2023/02/06 07:53:03;;;;;;;77.10;15.15;;;1.60;99.90;;;-144.05;85.16;57097.34;4978975;28;20407;-85
2023/02/06 07:55:29;;;;;;;77.00;17.98;;;1.60;99.90;;;-144.05;85.03;57080.34;4979208;28;20038;-87
2023/02/06 07:57:55;;;;;;;89.13;15.77;;;1.70;99.90;;;-144.05;85.17;57056.97;4979433;28;20053;-85
2023/02/06 08:00:21;;;;;;;95.10;16.33;;;1.80;99.90;;;-144.05;84.86;57093.09;4978868;28;20080;-85
2023/02/06 08:02:47;;;;;;;104.60;19.48;;;1.80;99.90;;;-144.05;84.77;57071.84;4979757;28;20033;-84
2023/02/06 08:05:13;;;;;;;79.30;16.75;;;1.90;99.90;;;-144.05;84.84;57065.47;4978847;28;20030;-84
2023/02/06 08:07:39;;;;;;;51.05;14.75;;;1.90;99.90;;;-144.05;84.92;57076.09;4979069;28;20521;-83
2023/02/06 08:10:05;;;;;;;72.95;17.08;;;1.90;99.90;;;-144.05;84.98;57082.47;4979220;28;20064;-84
2023/02/06 08:12:32;;;;;;;93.78;18.50;;;2.00;99.90;;;-144.05;84.74;57073.97;4995266;28;20026;-85
2023/02/06 08:14:57;;;;;;;84.00;16.77;;;2.10;99.90;;;-144.05;84.79;57112.22;4996690;28;20031;-85
2023/02/06 08:17:23;;;;;;;77.07;16.02;;;2.00;99.90;;;-144.05;84.61;57080.34;4978894;28;20569;-84
2023/02/06 08:19:49;;;;;;;69.35;14.15;;;2.10;99.90;;;-144.05;85.04;57061.22;4978388;28;20069;-84
2023/02/06 08:22:15;;;;;;;89.05;16.33;;;2.20;99.90;;;-144.05;84.53;57071.84;4979082;28;20037;-85
2023/02/06 08:24:41;;;;;;;85.68;15.98;;;2.10;99.90;;;-144.05;84.41;57078.22;4980058;28;20034;-84
2023/02/06 08:27:07;;;;;;;80.38;15.02;;;2.20;99.90;;;-144.05;84.38;57097.34;4979533;28;20074;-84
2023/02/06 08:29:41;;;;;;;74.57;15.65;;;2.10;99.90;;;-144.05;84.41;57067.59;4981848;28;20034;-83
2023/02/06 08:32:10;;;;;;;63.25;14.93;;;2.20;99.90;;;-144.05;84.51;57084.59;4995409;28;20062;-87
2023/02/06 08:34:39;;;;;;;58.13;15.88;;;2.20;99.90;;;-144.05;84.08;57059.09;4989347;28;20031;-85
2023/02/06 08:37:05;;;;;;;68.80;17.83;;;2.20;99.90;;;-144.05;84.04;57095.22;4978870;28;20033;-84
2023/02/06 08:39:31;;;;;;;90.85;18.05;;;2.20;99.90;;;-144.05;84.07;57040.00;4978563;28;20022;-84
2023/02/06 08:41:57;;;;;;;79.63;18.40;;;2.20;99.90;;;-144.05;84.40;57090.97;4978568;28;20038;-84
2023/02/06 08:44:22;;;;;;;88.03;22.40;;;2.30;99.90;;;-144.05;84.35;57097.34;4978949;28;20570;-85
2023/02/06 08:46:48;;;;;;;90.18;21.25;;;2.30;99.90;;;-144.05;83.99;57061.22;4979070;28;20124;-84
2023/02/06 08:49:19;;;;;;;102.80;23.58;;;2.30;99.90;;;-144.05;84.29;57093.09;4978543;28;20034;-83
2023/02/06 08:51:49;;;;;;;95.13;22.10;;;2.30;99.90;;;-144.05;84.28;57067.59;4978645;28;20088;-85
2023/02/06 08:54:20;;;;;;;103.43;24.23;;;2.30;99.90;;;-144.05;84.16;57097.34;4978074;28;20034;-84
2023/02/06 08:56:48;;;;;;;78.40;21.67;;;2.30;99.90;;;-144.05;84.32;57078.22;4978576;28;20109;-83
2023/02/06 08:59:17;;;;;;;88.47;20.75;;;2.40;99.90;;;-144.05;84.15;57050.63;4978200;28;20056;-83
2023/02/06 09:01:45;;;;;;;102.63;21.55;;;2.30;99.90;;;-144.05;84.22;57073.97;4978590;28;20031;-84
2023/02/06 09:04:13;;;;;;;76.40;19.67;;;2.30;99.90;;;-144.05;84.02;57067.59;4978582;28;20033;-82
2023/02/06 09:06:45;;;;;;;81.90;22.27;;;2.30;99.90;;;-144.05;84.56;57050.63;4978466;28;20038;-84
2023/02/06 09:09:12;;;;;;;82.18;20.90;;;2.40;99.90;;;-144.05;84.53;57061.22;4978044;28;20030;-83
2023/02/06 09:11:38;;;;;;;99.68;27.38;;;2.50;99.90;;;-144.05;84.19;57080.34;4977722;28;20510;-84
2023/02/06 09:14:07;;;;;;;87.32;24.38;;;2.50;99.90;;;-144.05;84.23;57071.84;4977821;28;20318;-86
2023/02/06 09:16:34;;;;;;;76.07;22.77;;;2.50;99.90;;;-144.05;84.23;57067.59;4978633;28;20045;-84
2023/02/06 09:19:02;;;;;;;96.38;23.30;;;2.40;99.90;;;-144.05;84.25;57093.09;4995054;28;20026;-84
2023/02/06 09:21:33;;;;;;;63.58;19.55;;;2.50;99.90;;;-144.05;84.29;57063.34;4977338;28;20026;-83
2023/02/06 09:24:06;;;;;;;56.85;18.90;;;2.60;99.90;;;-144.05;84.76;57042.13;4977733;28;20462;-82
2023/02/06 09:26:40;;;;;;;61.90;16.85;;;2.70;99.90;;;-144.05;84.19;57067.59;4977752;28;20026;-83
2023/02/06 09:29:09;;;;;;;65.32;16.85;;;2.80;99.90;;;-144.05;84.42;57084.59;4977416;28;20052;-83
2023/02/06 09:31:40;;;;;;;57.25;13.60;;;2.70;99.90;;;-144.05;84.14;57076.09;4977392;28;20034;-84
2023/02/06 09:34:07;;;;;;;37.67;10.93;;;2.90;99.90;;;-144.05;83.84;57069.72;4977394;28;20121;-86
2023/02/06 09:36:35;;;;;;;40.60;10.25;;;2.80;99.90;;;-144.05;83.64;57056.97;4977085;28;20162;-84
2023/02/06 09:39:06;;;;;;;37.42;11.43;;;2.90;99.90;;;-144.05;83.80;57059.09;4994229;28;20026;-84
2023/02/06 09:42:05;;;;;;;33.50;11.45;;;2.90;99.90;;;-144.05;83.33;57048.50;4978557;28;20478;-84
2023/02/06 09:44:47;;;;;;;35.15;11.10;;;3.00;99.90;;;-144.05;83.42;57040.00;4978331;28;20082;-84
2023/02/06 09:47:37;;;;;;;37.10;11.50;;;3.00;99.90;;;-144.05;83.41;57040.00;4977879;28;20037;-83
2023/02/06 09:50:57;;;;;;;32.15;10.93;;;3.20;99.90;;;-144.05;83.41;57071.84;4995235;28;20030;-84
2023/02/06 09:53:50;;;;;;;27.65;10.45;;;3.20;99.90;;;-144.05;82.64;57069.72;4978295;28;20300;-84
2023/02/06 09:56:35;;;;;;;26.42;9.98;;;3.30;99.90;;;-144.05;82.84;57052.75;4996217;28;20118;-86
2023/02/06 09:59:31;;;;;;;34.67;11.05;;;3.30;99.90;;;-144.05;81.77;57056.97;4996009;28;20066;-84
2023/02/06 10:03:17;;;;;;;25.38;10.23;;;3.30;99.90;;;-144.05;81.96;57056.97;4978954;28;20034;-84
2023/02/06 10:07:09;;;;;;;32.97;12.07;;;3.20;99.90;;;-144.05;81.70;57076.09;4918893;29;20080;-86
2023/02/06 10:10:55;;;;;;;;;;;;;;;;;;;;;
2023/02/06 10:14:37;;;;;;;40.78;13.10;;;3.30;99.90;;;-144.05;81.99;57080.34;4995540;28;20048;-87
2023/02/06 10:17:28;;;;;;;43.70;13.25;;;3.20;99.90;;;-144.05;81.57;57037.88;4977811;28;20132;-87
2023/02/06 10:20:34;;;;;;;40.13;13.02;;;3.30;99.90;;;-144.05;82.02;57073.97;4977070;28;20129;-86
2023/02/06 10:23:38;;;;;;;41.70;16.15;;;3.40;99.90;;;-144.05;81.16;57035.75;4976791;28;20042;-87
2023/02/06 10:26:18;;;;;;;44.05;16.35;;;3.70;99.90;;;-144.05;80.79;57025.13;4978440;28;20026;-87
2023/02/06 10:28:55;;;;;;;38.25;14.60;;;3.70;99.90;;;-144.05;80.02;57067.59;4980672;28;20122;-89
2023/02/06 10:31:54;;;;;;;40.58;15.77;;;3.80;99.90;;;-144.05;79.60;57042.13;4997221;28;20026;-84
2023/02/06 10:35:56;;;;;;;33.53;13.50;;;3.80;99.90;;;-144.05;79.12;57054.88;4997971;28;20077;-83